createdAt,value
2017-10-14T00:01:30.616Z,13.03
2017-10-14T00:06:33.792Z,12.17
2017-10-14T00:11:37.763Z,14.13
2017-10-14T00:16:40.959Z,12.93
2017-10-14T00:21:44.172Z,12.30
2017-10-14T00:26:47.369Z,13.27
2017-10-14T00:31:50.573Z,12.80
2017-10-14T00:36:53.786Z,14.10
2017-10-14T00:41:56.982Z,13.90
2017-10-14T00:47:00.182Z,12.40
2017-10-14T00:52:03.358Z,13.50
2017-10-14T00:57:06.549Z,14.30
2017-10-14T01:02:09.753Z,13.20
2017-10-14T01:07:12.945Z,14.60
2017-10-14T01:12:16.209Z,15.23
2017-10-14T01:17:20.321Z,13.27
2017-10-14T01:22:24.271Z,12.30
2017-10-14T01:27:27.454Z,11.50
2017-10-14T01:32:30.611Z,12.70
2017-10-14T01:37:33.814Z,12.17
2017-10-14T01:42:37.010Z,13.13
2017-10-14T01:47:40.217Z,12.88
2017-10-14T01:52:43.450Z,13.67
2017-10-14T01:57:46.818Z,13.10
2017-10-14T02:02:50.021Z,14.43
2017-10-14T02:07:53.206Z,13.63
2017-10-14T02:12:57.196Z,12.53
2017-10-14T02:18:00.385Z,11.70
2017-10-14T02:23:03.554Z,13.33
2017-10-14T02:28:06.714Z,12.63
2017-10-14T02:33:09.884Z,12.77
2017-10-14T02:38:13.224Z,13.53
2017-10-14T02:43:16.452Z,13.17
2017-10-14T02:48:19.672Z,13.77
2017-10-14T02:53:22.864Z,14.27
2017-10-14T02:58:26.086Z,13.80
2017-10-14T03:03:29.277Z,13.87
2017-10-14T03:08:32.481Z,13.90
2017-10-14T03:13:35.691Z,13.70
2017-10-14T03:18:38.899Z,13.60
2017-10-14T03:23:42.077Z,11.77
2017-10-14T03:28:46.126Z,12.97
2017-10-14T03:33:49.323Z,13.30
2017-10-14T03:38:52.614Z,13.73
2017-10-14T03:43:55.832Z,14.93
2017-10-14T03:48:59.952Z,14.93
2017-10-14T03:54:03.169Z,15.27
2017-10-14T03:59:06.391Z,15.00
2017-10-14T04:04:09.648Z,14.73
2017-10-14T04:09:13.612Z,14.73
2017-10-14T04:14:18.178Z,12.85
2017-10-14T04:19:21.389Z,12.83
2017-10-14T04:24:24.584Z,11.87
2017-10-14T04:29:27.770Z,13.83
2017-10-14T04:34:30.980Z,13.87
2017-10-14T04:39:34.198Z,14.37
2017-10-14T04:44:37.398Z,14.70
2017-10-14T04:49:40.591Z,13.10
2017-10-14T04:54:43.789Z,13.57
2017-10-14T04:59:47.004Z,13.20
2017-10-14T05:04:50.188Z,17.70
2017-10-14T05:09:53.389Z,14.20
2017-10-14T05:14:56.582Z,13.77
2017-10-14T05:20:00.546Z,15.00
2017-10-14T05:25:03.764Z,13.93
2017-10-14T05:30:06.969Z,14.50
2017-10-14T05:35:10.163Z,13.40
2017-10-14T05:40:13.361Z,12.10
2017-10-14T05:45:16.559Z,12.70
2017-10-14T05:50:19.774Z,15.50
2017-10-14T05:55:23.953Z,12.27
2017-10-14T06:00:27.156Z,10.53
2017-10-14T06:05:30.314Z,10.90
2017-10-14T06:10:33.503Z,10.67
2017-10-14T06:15:36.759Z,10.20
2017-10-14T06:20:39.937Z,8.63
2017-10-14T06:25:43.133Z,9.13
2017-10-14T06:30:46.362Z,9.57
2017-10-14T06:35:49.578Z,10.17
2017-10-14T06:40:52.770Z,8.80
2017-10-14T06:45:55.976Z,9.25
2017-10-14T06:50:59.159Z,8.53
2017-10-14T06:56:02.386Z,8.67
2017-10-14T07:01:05.601Z,7.83
2017-10-14T07:06:08.797Z,11.03
2017-10-14T07:11:11.974Z,9.27
2017-10-14T07:16:15.934Z,7.93
2017-10-14T07:21:19.136Z,7.67
2017-10-14T07:26:22.341Z,8.33
2017-10-14T07:31:25.537Z,8.37
2017-10-14T07:36:28.738Z,8.03
2017-10-14T07:41:31.902Z,8.67
2017-10-14T07:46:35.106Z,7.20
2017-10-14T07:51:39.246Z,9.57
2017-10-14T07:56:42.450Z,9.50
2017-10-14T08:01:45.639Z,10.67
2017-10-14T08:06:48.835Z,11.30
2017-10-14T08:11:52.025Z,11.30
2017-10-14T08:16:55.270Z,12.10
2017-10-14T08:21:58.478Z,11.73
2017-10-14T08:27:01.662Z,12.63
2017-10-14T08:32:04.854Z,12.30
2017-10-14T08:37:08.025Z,13.30
2017-10-14T08:42:13.122Z,11.87
2017-10-14T08:47:16.353Z,12.50
2017-10-14T08:52:19.545Z,11.70
2017-10-14T08:57:23.070Z,12.27
2017-10-14T09:02:26.270Z,11.57
2017-10-14T09:07:29.577Z,12.13
2017-10-14T09:12:32.899Z,12.77
2017-10-14T09:17:36.119Z,11.57
2017-10-14T09:22:39.438Z,11.67
2017-10-14T09:27:43.411Z,10.70
2017-10-14T09:32:47.508Z,11.07
2017-10-14T09:37:51.487Z,9.87
2017-10-14T09:42:54.998Z,11.60
2017-10-14T09:47:58.282Z,9.23
2017-10-14T09:53:01.473Z,8.83
2017-10-14T09:58:04.705Z,9.07
2017-10-14T10:03:07.917Z,10.17
2017-10-14T10:08:11.117Z,11.17
2017-10-14T10:13:14.365Z,10.80
2017-10-14T10:18:18.322Z,10.20
2017-10-14T10:23:21.503Z,9.43
2017-10-14T10:28:25.496Z,8.20
2017-10-14T10:33:28.910Z,7.93
2017-10-14T10:38:32.098Z,9.33
2017-10-14T10:43:35.538Z,7.67
2017-10-14T10:48:39.699Z,7.20
2017-10-14T10:53:44.261Z,6.65
2017-10-14T10:58:47.482Z,7.50
2017-10-14T11:03:50.729Z,8.77
2017-10-14T11:08:53.898Z,6.90
2017-10-14T11:13:57.107Z,6.77
2017-10-14T11:19:00.334Z,6.87
2017-10-14T11:24:03.522Z,6.17
2017-10-14T11:29:06.746Z,6.17
2017-10-14T11:34:10.094Z,5.80
2017-10-14T11:39:14.037Z,6.33
2017-10-14T11:44:17.262Z,6.40
2017-10-14T11:49:20.455Z,7.43
2017-10-14T11:54:23.661Z,5.37
2017-10-14T11:59:26.877Z,5.17
2017-10-14T12:04:30.073Z,5.27
2017-10-14T12:09:33.274Z,4.73
2017-10-14T12:14:36.505Z,5.57
2017-10-14T12:19:39.721Z,5.87
2017-10-14T12:24:42.906Z,5.23
2017-10-14T12:29:46.084Z,4.70
2017-10-14T12:34:50.034Z,4.80
2017-10-14T12:39:53.248Z,5.30
2017-10-14T12:44:56.442Z,4.93
2017-10-14T12:49:59.637Z,4.90
2017-10-14T12:55:02.833Z,4.93
2017-10-14T13:00:06.802Z,4.13
2017-10-14T13:05:10.002Z,3.90
2017-10-14T13:10:13.195Z,4.70
2017-10-14T13:15:16.382Z,3.87
2017-10-14T13:20:20.352Z,3.93
2017-10-14T13:25:23.891Z,3.90
2017-10-14T13:30:27.117Z,5.47
2017-10-14T13:35:31.081Z,4.23
2017-10-14T13:40:34.288Z,3.10
2017-10-14T13:45:37.507Z,3.70
2017-10-14T13:50:40.688Z,4.00
2017-10-14T13:55:43.882Z,3.00
2017-10-14T14:00:47.931Z,3.17
2017-10-14T14:05:51.134Z,2.97
2017-10-14T14:10:54.329Z,3.43
2017-10-14T14:15:57.517Z,3.10
2017-10-14T14:21:01.469Z,3.00
2017-10-14T14:26:04.681Z,3.50
2017-10-14T14:31:07.908Z,3.60
2017-10-14T14:36:11.112Z,3.40
2017-10-14T14:41:14.327Z,3.70
2017-10-14T14:46:17.521Z,4.23
2017-10-14T14:51:20.718Z,2.60
2017-10-14T14:56:23.922Z,2.80
2017-10-14T15:01:27.133Z,4.07
2017-10-14T15:06:30.335Z,2.80
2017-10-14T15:11:33.558Z,3.20
2017-10-14T15:16:36.751Z,2.77
2017-10-14T15:21:39.949Z,4.10
2017-10-14T15:26:43.409Z,3.62
2017-10-14T15:31:46.802Z,3.60
2017-10-14T15:36:50.017Z,3.83
2017-10-14T15:41:53.225Z,3.30
2017-10-14T15:46:56.430Z,3.60
2017-10-14T15:51:59.633Z,3.37
2017-10-14T15:57:02.823Z,5.20
2017-10-14T16:02:06.051Z,5.20
2017-10-14T16:07:09.306Z,3.90
2017-10-14T16:12:13.278Z,4.53
2017-10-14T16:17:16.490Z,4.50
2017-10-14T16:22:19.792Z,4.40
2017-10-14T16:27:22.993Z,3.60
2017-10-14T16:32:26.182Z,5.17
2017-10-14T16:37:29.508Z,5.30
2017-10-14T16:42:32.843Z,12.13
2017-10-14T16:47:36.347Z,11.30
2017-10-14T16:52:40.746Z,7.70
2017-10-14T16:57:44.036Z,4.73
2017-10-14T17:02:48.012Z,5.97
2017-10-14T17:07:51.219Z,6.78
2017-10-14T17:12:54.414Z,4.87
2017-10-14T17:17:57.631Z,4.83
2017-10-14T17:23:00.811Z,4.90
2017-10-14T17:28:04.007Z,5.30
2017-10-14T17:33:07.981Z,7.70
2017-10-14T17:38:11.188Z,8.00
2017-10-14T17:43:14.416Z,7.40
2017-10-14T17:48:17.613Z,7.23
2017-10-14T17:53:20.809Z,11.50
2017-10-14T17:58:24.128Z,6.43
2017-10-14T18:03:27.341Z,6.57
2017-10-14T18:08:30.552Z,9.00
2017-10-14T18:13:33.765Z,6.33
2017-10-14T18:18:37.765Z,6.10
2017-10-14T18:23:40.966Z,5.60
2017-10-14T18:28:44.177Z,6.60
2017-10-14T18:33:47.372Z,7.53
2017-10-14T18:38:50.582Z,9.43
2017-10-14T18:43:53.866Z,6.90
2017-10-14T18:48:57.069Z,7.77
2017-10-14T18:54:00.292Z,7.07
2017-10-14T18:59:03.519Z,6.73
2017-10-14T19:04:06.723Z,6.53
2017-10-14T19:09:09.906Z,6.77
2017-10-14T19:14:13.115Z,7.70
2017-10-14T19:19:16.303Z,6.23
2017-10-14T19:24:19.560Z,7.10
2017-10-14T19:29:22.781Z,8.57
2017-10-14T19:34:25.974Z,8.23
2017-10-14T19:39:29.162Z,6.60
2017-10-14T19:44:33.294Z,8.00
2017-10-14T19:49:36.493Z,7.20
2017-10-14T19:54:39.794Z,7.17
2017-10-14T19:59:42.992Z,8.50
2017-10-14T20:04:46.198Z,8.25
2017-10-14T20:09:49.399Z,7.13
2017-10-14T20:14:52.631Z,7.57
2017-10-14T20:19:55.849Z,7.90
2017-10-14T20:24:59.142Z,9.03
2017-10-14T20:30:02.406Z,7.60
2017-10-14T20:35:05.637Z,8.00
2017-10-14T20:40:08.873Z,6.77
2017-10-14T20:45:12.086Z,8.57
2017-10-14T20:50:15.275Z,8.30
2017-10-14T20:55:18.560Z,9.45
2017-10-14T21:00:21.778Z,10.57
2017-10-14T21:05:24.979Z,9.70
2017-10-14T21:10:28.206Z,10.53
2017-10-14T21:15:31.410Z,10.03
2017-10-14T21:20:34.619Z,10.70
2017-10-14T21:25:37.913Z,10.93
2017-10-14T21:30:41.103Z,10.00
2017-10-14T21:35:44.297Z,9.10
2017-10-14T21:40:47.470Z,10.23
2017-10-14T21:45:50.676Z,9.63
2017-10-14T21:50:53.890Z,9.47
2017-10-14T21:55:57.090Z,10.40
2017-10-14T22:01:00.248Z,9.07
2017-10-14T22:06:04.221Z,9.73
2017-10-14T22:11:07.413Z,9.50
2017-10-14T22:16:10.637Z,10.80
2017-10-14T22:21:13.830Z,9.20
2017-10-14T22:26:17.018Z,8.97
2017-10-14T22:31:20.207Z,9.00
2017-10-14T22:36:23.413Z,8.33
2017-10-14T22:41:26.617Z,8.93
2017-10-14T22:46:29.807Z,9.50
2017-10-14T22:51:33.770Z,9.40
2017-10-14T22:56:36.969Z,8.77
2017-10-14T23:01:40.167Z,9.90
2017-10-14T23:06:43.365Z,9.23
2017-10-14T23:11:46.556Z,8.90
2017-10-14T23:16:50.513Z,8.73
2017-10-14T23:21:53.727Z,9.10
2017-10-14T23:26:56.903Z,8.40
2017-10-14T23:32:00.855Z,8.20
2017-10-14T23:37:04.078Z,9.00
2017-10-14T23:42:07.250Z,8.43
2017-10-14T23:47:10.438Z,8.40
2017-10-14T23:52:14.530Z,7.20
2017-10-14T23:57:17.725Z,9.02
